createdAt,value
2022-12-05T00:01:34.676Z,87327.03
2022-12-05T00:04:07.908Z,87322.16
2022-12-05T00:06:37.657Z,87322.91
2022-12-05T00:09:07.604Z,87318.69
2022-12-05T00:11:38.138Z,87310.13
2022-12-05T00:14:07.892Z,87316.06
2022-12-05T00:16:39.338Z,87311.97
2022-12-05T00:19:09.112Z,87310.88
2022-12-05T00:21:37.624Z,87316.50
2022-12-05T00:24:08.389Z,87310.88
2022-12-05T00:26:36.621Z,87309.59
2022-12-05T00:29:04.234Z,87312.41
2022-12-05T00:31:31.898Z,87314.25
2022-12-05T00:34:03.903Z,87313.50
2022-12-05T00:36:34.635Z,87302.34
2022-12-05T00:39:08.444Z,87299.59
2022-12-05T00:41:36.135Z,87304.72
2022-12-05T00:44:04.379Z,87309.59
2022-12-05T00:46:33.724Z,87303.84
2022-12-05T00:49:03.886Z,87293.75
2022-12-05T00:51:35.828Z,87288.78
2022-12-05T00:54:09.943Z,87292.91
2022-12-05T00:56:37.647Z,87298.88
2022-12-05T00:59:06.707Z,87301.66
2022-12-05T01:01:38.751Z,87302.22
2022-12-05T01:04:17.259Z,87300.59
2022-12-05T01:06:44.774Z,87305.91
2022-12-05T01:09:15.667Z,87321.84
2022-12-05T01:11:44.085Z,87316.22
2022-12-05T01:14:14.585Z,87321.63
2022-12-05T01:16:45.228Z,87325.97
2022-12-05T01:19:29.054Z,87331.69
2022-12-05T01:21:57.369Z,87322.03
2022-12-05T01:24:26.930Z,87324.44
2022-12-05T01:26:55.043Z,87332.34
2022-12-05T01:29:24.230Z,87344.69
2022-12-05T01:31:52.498Z,87341.56
2022-12-05T01:34:20.629Z,87329.75
2022-12-05T01:36:48.439Z,87333.84
2022-12-05T01:39:16.575Z,87331.38
2022-12-05T01:41:50.524Z,87342.09
2022-12-05T01:44:17.690Z,87336.47
2022-12-05T01:46:53.810Z,87337.78
2022-12-05T01:49:32.415Z,87325.84
2022-12-05T01:52:10.509Z,87324.53
2022-12-05T01:54:38.943Z,87325.31
2022-12-05T01:57:11.709Z,87321.41
2022-12-05T01:59:50.257Z,87319.78
2022-12-05T02:02:18.301Z,87320.66
2022-12-05T02:05:17.937Z,87315.13
2022-12-05T02:07:47.477Z,87315.56
2022-12-05T02:10:15.161Z,87308.06
2022-12-05T02:12:45.050Z,87309.28
2022-12-05T02:15:18.095Z,87310.47
2022-12-05T02:18:15.369Z,87317.81
2022-12-05T02:21:16.001Z,87310.69
2022-12-05T02:24:17.131Z,87311.13
2022-12-05T02:26:49.901Z,87305.91
2022-12-05T02:29:36.760Z,87306.97
2022-12-05T02:32:26.180Z,87299.09
2022-12-05T02:35:25.174Z,87297.88
2022-12-05T02:38:24.574Z,87302.31
2022-12-05T02:41:35.417Z,87294.94
2022-12-05T02:44:14.752Z,87289.44
2022-12-05T02:46:44.317Z,87289.31
2022-12-05T02:49:20.532Z,87296.81
2022-12-05T02:51:55.441Z,87288.25
2022-12-05T02:54:29.617Z,87289.00
2022-12-05T02:56:59.918Z,87284.88
2022-12-05T02:59:27.454Z,87289.31
2022-12-05T03:01:55.357Z,87282.50
2022-12-05T03:04:26.628Z,87284.53
2022-12-05T03:06:59.624Z,87285.94
2022-12-05T03:09:35.671Z,87287.06
2022-12-05T03:12:26.721Z,87283.34
2022-12-05T03:15:06.379Z,87277.50
2022-12-05T03:17:43.619Z,87293.44
2022-12-05T03:20:30.142Z,87286.28
2022-12-05T03:23:15.927Z,87279.69
2022-12-05T03:26:10.193Z,87276.66
2022-12-05T03:28:44.461Z,87275.66
2022-12-05T03:31:18.156Z,87268.19
2022-12-05T03:33:50.846Z,87276.09
2022-12-05T03:36:35.124Z,87288.03
2022-12-05T03:39:25.921Z,87285.31
2022-12-05T03:42:11.058Z,87286.06
2022-12-05T03:44:54.333Z,87280.88
2022-12-05T03:47:33.810Z,87284.22
2022-12-05T03:50:12.546Z,87279.69
2022-12-05T03:53:18.119Z,87279.78
2022-12-05T03:55:42.905Z,87278.28
2022-12-05T03:58:38.745Z,87273.41
2022-12-05T04:01:10.582Z,87270.81
2022-12-05T04:03:46.930Z,87265.34
2022-12-05T04:06:34.009Z,87269.47
2022-12-05T04:09:45.708Z,87273.06
2022-12-05T04:12:22.592Z,87268.72
2022-12-05T04:14:59.983Z,87271.75
2022-12-05T04:17:37.957Z,87270.56
2022-12-05T04:20:18.017Z,87262.19
2022-12-05T04:22:45.977Z,87262.19
2022-12-05T04:25:15.736Z,87250.38
2022-12-05T04:28:21.745Z,87265.44
2022-12-05T04:31:02.073Z,87275.41
2022-12-05T04:33:52.162Z,87270.34
2022-12-05T04:36:36.385Z,87273.03
2022-12-05T04:39:25.793Z,87253.19
2022-12-05T04:42:01.365Z,87251.66
2022-12-05T04:44:36.549Z,87254.69
2022-12-05T04:47:10.639Z,87251.00
2022-12-05T04:49:41.250Z,87241.00
2022-12-05T04:52:12.744Z,87246.66
2022-12-05T04:55:02.586Z,87254.38
2022-12-05T04:57:44.994Z,87261.75
2022-12-05T05:00:12.861Z,87248.81
2022-12-05T05:03:01.000Z,87243.81
2022-12-05T05:05:31.186Z,87258.78
2022-12-05T05:07:58.930Z,87265.50
2022-12-05T05:10:51.490Z,87265.19
2022-12-05T05:13:18.775Z,87266.13
2022-12-05T05:15:46.066Z,87265.06
2022-12-05T05:18:13.287Z,87258.09
2022-12-05T05:20:40.489Z,87254.50
2022-12-05T05:23:07.900Z,87260.25
2022-12-05T05:25:35.081Z,87257.28
2022-12-05T05:28:02.456Z,87254.69
2022-12-05T05:30:29.626Z,87264.78
2022-12-05T05:33:00.028Z,87261.09
2022-12-05T05:35:27.593Z,87265.66
2022-12-05T05:37:54.737Z,87267.16
2022-12-05T05:40:21.910Z,87268.00
2022-12-05T05:42:50.093Z,87270.38
2022-12-05T05:45:18.095Z,87258.44
2022-12-05T05:47:48.298Z,87254.75
2022-12-05T05:50:21.149Z,87262.22
2022-12-05T05:52:49.717Z,87269.38
2022-12-05T05:55:17.049Z,87258.59
2022-12-05T05:57:44.308Z,87260.13
2022-12-05T06:00:12.556Z,87251.25
2022-12-05T06:02:39.855Z,87255.34
2022-12-05T06:05:07.855Z,87247.53
2022-12-05T06:07:35.076Z,87243.84
2022-12-05T06:10:02.591Z,87262.09
2022-12-05T06:12:29.900Z,87264.34
2022-12-05T06:14:57.298Z,87259.06
2022-12-05T06:17:24.519Z,87263.16
2022-12-05T06:19:51.766Z,87263.59
2022-12-05T06:22:19.045Z,87270.31
2022-12-05T06:24:46.274Z,87267.03
2022-12-05T06:27:13.465Z,87264.78
2022-12-05T06:29:40.750Z,87262.09
2022-12-05T06:32:08.117Z,87269.34
2022-12-05T06:34:35.413Z,87272.69
2022-12-05T06:37:02.831Z,87270.75
2022-12-05T06:39:29.980Z,87270.75
2022-12-05T06:41:57.436Z,87276.72
2022-12-05T06:44:25.237Z,87276.38
2022-12-05T06:46:54.156Z,87280.53
2022-12-05T06:49:29.329Z,87280.84
2022-12-05T06:51:59.832Z,87273.84
2022-12-05T06:54:27.015Z,87275.03
2022-12-05T06:56:54.137Z,87279.94
2022-12-05T06:59:21.398Z,87274.72
2022-12-05T07:01:48.684Z,87275.16
2022-12-05T07:04:20.334Z,87277.41
2022-12-05T07:06:50.852Z,87285.00
2022-12-05T07:09:22.233Z,87288.47
2022-12-05T07:11:51.403Z,87289.63
2022-12-05T07:14:45.932Z,87295.63
2022-12-05T07:17:06.212Z,87296.38
2022-12-05T07:19:33.405Z,87297.22
2022-12-05T07:22:00.725Z,87299.91
2022-12-05T07:24:28.246Z,87305.03
2022-12-05T07:26:55.720Z,87302.53
2022-12-05T07:29:23.066Z,87298.50
2022-12-05T07:31:50.227Z,87301.88
2022-12-05T07:34:17.493Z,87301.53
2022-12-05T07:36:44.736Z,87304.53
2022-12-05T07:39:11.926Z,87305.41
2022-12-05T07:41:39.152Z,87301.38
2022-12-05T07:44:06.376Z,87312.25
2022-12-05T07:46:33.620Z,87308.88
2022-12-05T07:49:00.775Z,87316.78
2022-12-05T07:51:28.081Z,87313.09
2022-12-05T07:53:55.210Z,87325.00
2022-12-05T07:56:22.673Z,87316.53
2022-12-05T07:58:50.805Z,87314.03
2022-12-05T08:01:19.422Z,87312.91
2022-12-05T08:03:48.094Z,87319.75
2022-12-05T08:06:19.215Z,87316.72
2022-12-05T08:08:47.202Z,87328.22
2022-12-05T08:11:22.295Z,87321.50
2022-12-05T08:13:50.853Z,87319.25
2022-12-05T08:16:23.700Z,87330.53
2022-12-05T08:18:59.567Z,87331.28
2022-12-05T08:21:27.252Z,87331.34
2022-12-05T08:23:54.537Z,87328.81
2022-12-05T08:26:29.294Z,87331.44
2022-12-05T08:29:01.281Z,87332.97
2022-12-05T08:31:31.252Z,87334.81
2022-12-05T08:34:00.905Z,87344.66
2022-12-05T08:36:30.217Z,87340.31
2022-12-05T08:39:05.424Z,87340.97
2022-12-05T08:41:33.050Z,87348.88
2022-12-05T08:44:04.516Z,87342.16
2022-12-05T08:46:34.830Z,87347.78
2022-12-05T08:49:03.494Z,87341.47
2022-12-05T08:51:30.756Z,87337.84
2022-12-05T08:53:58.036Z,87332.63
2022-12-05T08:56:27.522Z,87328.19
2022-12-05T08:59:02.904Z,87328.94
2022-12-05T09:01:33.303Z,87323.31
2022-12-05T09:04:01.831Z,87320.69
2022-12-05T09:06:29.930Z,87336.34
2022-12-05T09:09:05.639Z,87337.44
2022-12-05T09:11:37.786Z,87338.19
2022-12-05T09:14:05.587Z,87332.56
2022-12-05T09:16:38.451Z,87340.03
2022-12-05T09:19:13.269Z,87336.00
2022-12-05T09:21:41.783Z,87325.25
2022-12-05T09:24:12.771Z,87320.44
2022-12-05T09:26:41.475Z,87313.03
2022-12-05T09:29:16.788Z,87313.44
2022-12-05T09:31:49.040Z,87316.47
2022-12-05T09:34:16.919Z,87312.69
2022-12-05T09:36:44.457Z,87314.88
2022-12-05T09:39:11.961Z,87309.41
2022-12-05T09:41:59.897Z,87306.47
2022-12-05T09:45:15.227Z,87315.06
2022-12-05T09:47:51.477Z,87310.19
2022-12-05T09:50:27.924Z,87307.63
2022-12-05T09:53:00.926Z,87302.50
2022-12-05T09:55:40.204Z,87299.56
2022-12-05T09:58:33.276Z,87302.25
2022-12-05T10:01:41.685Z,87305.69
2022-12-05T10:04:32.398Z,87293.13
2022-12-05T10:08:01.305Z,87301.50
2022-12-05T10:10:48.357Z,87294.22
2022-12-05T10:13:21.625Z,87295.41
2022-12-05T10:16:00.918Z,87290.25
2022-12-05T10:18:40.996Z,87289.47
2022-12-05T10:21:21.009Z,87293.28
2022-12-05T10:23:58.081Z,87272.78
2022-12-05T10:26:44.344Z,87284.00
2022-12-05T10:29:27.389Z,87271.28
2022-12-05T10:32:18.735Z,87278.28
2022-12-05T10:34:46.951Z,87274.50
2022-12-05T10:37:20.039Z,87269.34
2022-12-05T10:39:50.116Z,87259.56
2022-12-05T10:42:31.762Z,87273.41
2022-12-05T10:45:05.217Z,87273.41
2022-12-05T10:47:33.203Z,87265.91
2022-12-05T10:50:08.141Z,87263.03
2022-12-05T10:52:36.051Z,87252.91
2022-12-05T10:55:06.866Z,87252.59
2022-12-05T10:57:34.078Z,87245.09
2022-12-05T11:00:15.277Z,87244.59
2022-12-05T11:02:49.341Z,87243.75
2022-12-05T11:05:28.679Z,87238.47
2022-12-05T11:07:57.531Z,87236.69
2022-12-05T11:10:35.025Z,87232.06
2022-12-05T11:13:15.741Z,87216.41
2022-12-05T11:15:52.209Z,87217.47
2022-12-05T11:18:25.465Z,87204.78
2022-12-05T11:20:52.967Z,87212.63
2022-12-05T11:23:30.207Z,87213.28
2022-12-05T11:25:58.839Z,87209.25
2022-12-05T11:28:41.374Z,87208.16
2022-12-05T11:31:28.137Z,87198.06
2022-12-05T11:34:23.659Z,87202.56
2022-12-05T11:37:05.149Z,87200.38
2022-12-05T11:39:33.384Z,87191.81
2022-12-05T11:42:22.847Z,87198.63
2022-12-05T11:44:58.865Z,87184.81
2022-12-05T11:47:49.434Z,87183.97
2022-12-05T11:50:33.803Z,87172.81
2022-12-05T11:53:38.965Z,87162.53
2022-12-05T11:56:20.606Z,87157.44
2022-12-05T11:59:31.205Z,87153.75
2022-12-05T12:02:13.690Z,87150.72
2022-12-05T12:04:55.629Z,87157.44
2022-12-05T12:07:44.206Z,87153.34
2022-12-05T12:10:26.339Z,87141.88
2022-12-05T12:13:08.487Z,87144.38
2022-12-05T12:15:45.889Z,87142.19
2022-12-05T12:19:10.387Z,87146.25
2022-12-05T12:22:18.338Z,87138.34
2022-12-05T12:25:03.032Z,87137.94
2022-12-05T12:28:14.649Z,87132.78
2022-12-05T12:31:01.147Z,87133.13
2022-12-05T12:33:40.016Z,87129.06
2022-12-05T12:36:30.671Z,87130.16
2022-12-05T12:39:48.787Z,87117.88
2022-12-05T12:42:27.704Z,87118.94
2022-12-05T12:46:03.435Z,87115.94
2022-12-05T12:49:17.083Z,87108.50
2022-12-05T12:52:18.243Z,87101.03
2022-12-05T12:55:06.511Z,87103.00
2022-12-05T12:58:33.787Z,87088.84
2022-12-05T13:01:21.859Z,87078.81
2022-12-05T13:04:24.355Z,87070.28
2022-12-05T13:07:01.410Z,87063.56
2022-12-05T13:09:34.943Z,87071.03
2022-12-05T13:12:13.795Z,87068.41
2022-12-05T13:14:58.706Z,87064.72
2022-12-05T13:17:31.836Z,87059.41
2022-12-05T13:20:00.685Z,87059.72
2022-12-05T13:22:29.134Z,87058.75
2022-12-05T13:24:57.249Z,87073.28
2022-12-05T13:27:28.308Z,87062.81
2022-12-05T13:29:59.805Z,87064.28
2022-12-05T13:32:41.155Z,87069.53
2022-12-05T13:35:19.661Z,87070.22
2022-12-05T13:37:48.841Z,87076.56
2022-12-05T13:40:51.015Z,87083.28
2022-12-05T13:43:28.988Z,87075.44
2022-12-05T13:46:32.359Z,87076.22
2022-12-05T13:49:17.707Z,87074.72
2022-12-05T13:51:46.010Z,87078.50
2022-12-05T13:54:28.177Z,87075.41
2022-12-05T13:56:59.126Z,87082.41
2022-12-05T14:00:07.517Z,87078.97
2022-12-05T14:02:43.634Z,87074.84
2022-12-05T14:05:16.967Z,87083.03
2022-12-05T14:07:46.600Z,87077.47
2022-12-05T14:10:26.575Z,87086.47
2022-12-05T14:13:22.624Z,87079.38
2022-12-05T14:15:55.139Z,87069.22
2022-12-05T14:18:57.440Z,87074.78
2022-12-05T14:21:58.882Z,87072.59
2022-12-05T14:24:38.453Z,87066.53
2022-12-05T14:27:25.163Z,87062.81
2022-12-05T14:30:24.458Z,87060.56
2022-12-05T14:32:54.216Z,87064.63
2022-12-05T14:35:21.465Z,87064.63
2022-12-05T14:38:04.934Z,87057.94
2022-12-05T14:40:37.899Z,87060.16
2022-12-05T14:43:18.026Z,87064.66
2022-12-05T14:45:58.223Z,87056.78
2022-12-05T14:48:45.619Z,87051.06
2022-12-05T14:51:32.861Z,87051.78
2022-12-05T14:54:15.360Z,87040.56
2022-12-05T14:56:51.970Z,87037.19
2022-12-05T14:59:49.849Z,87026.00
2022-12-05T15:02:32.705Z,87023.34
2022-12-05T15:05:28.120Z,87028.06
2022-12-05T15:07:58.700Z,87035.06
2022-12-05T15:10:35.447Z,87029.81
2022-12-05T15:13:17.024Z,87029.66
2022-12-05T15:15:55.195Z,87029.50
2022-12-05T15:18:35.541Z,87023.13
2022-12-05T15:21:26.951Z,87028.41
2022-12-05T15:24:07.225Z,87023.19
2022-12-05T15:26:48.592Z,87024.97
2022-12-05T15:29:22.943Z,87019.47
2022-12-05T15:31:53.059Z,87019.06
2022-12-05T15:35:05.167Z,87013.50
2022-12-05T15:37:41.494Z,87015.34
2022-12-05T15:40:08.797Z,87015.69
2022-12-05T15:42:43.017Z,87020.16
2022-12-05T15:45:13.216Z,87022.78
2022-12-05T15:48:13.899Z,87018.38
2022-12-05T15:50:56.367Z,87023.88
2022-12-05T15:53:46.330Z,87029.09
2022-12-05T15:56:30.831Z,87034.31
2022-12-05T15:59:19.672Z,87032.44
2022-12-05T16:01:59.276Z,87039.53
2022-12-05T16:04:46.589Z,87037.25
2022-12-05T16:07:20.481Z,87047.34
2022-12-05T16:09:48.085Z,87045.47
2022-12-05T16:12:49.403Z,87055.91
2022-12-05T16:15:52.291Z,87054.78
2022-12-05T16:18:33.275Z,87049.97
2022-12-05T16:21:01.617Z,87042.13
2022-12-05T16:23:38.811Z,87030.28
2022-12-05T16:26:26.862Z,87031.00
2022-12-05T16:29:03.103Z,87035.50
2022-12-05T16:31:33.058Z,87035.50
2022-12-05T16:34:01.499Z,87039.94
2022-12-05T16:36:30.162Z,87038.09
2022-12-05T16:39:04.171Z,87040.34
2022-12-05T16:41:39.587Z,87033.63
2022-12-05T16:44:47.495Z,87032.78
2022-12-05T16:47:54.391Z,87028.34
2022-12-05T16:50:31.183Z,87025.38
2022-12-05T16:53:15.461Z,87023.88
2022-12-05T16:55:44.852Z,87020.88
2022-12-05T16:58:21.938Z,87018.53
2022-12-05T17:00:49.732Z,87009.16
2022-12-05T17:03:34.798Z,87016.66
2022-12-05T17:06:03.236Z,87019.88
2022-12-05T17:08:31.108Z,87019.44
2022-12-05T17:11:01.057Z,87015.81
2022-12-05T17:13:29.425Z,87016.59
2022-12-05T17:15:56.867Z,87021.81
2022-12-05T17:18:29.602Z,87018.72
2022-12-05T17:21:01.738Z,87015.50
2022-12-05T17:23:29.562Z,87030.03
2022-12-05T17:25:58.762Z,87037.38
2022-12-05T17:28:26.210Z,87036.38
2022-12-05T17:30:53.506Z,87034.09
2022-12-05T17:33:20.749Z,87038.56
2022-12-05T17:35:47.971Z,87033.75
2022-12-05T17:38:15.229Z,87030.81
2022-12-05T17:40:43.088Z,87026.34
2022-12-05T17:43:13.226Z,87018.66
2022-12-05T17:45:40.846Z,87017.91
2022-12-05T17:48:14.455Z,87021.28
2022-12-05T17:50:51.448Z,87020.88
2022-12-05T17:53:22.351Z,87020.44
2022-12-05T17:55:50.114Z,87021.19
2022-12-05T17:58:18.018Z,87017.50
2022-12-05T18:00:46.940Z,87022.34
2022-12-05T18:03:18.040Z,87016.66
2022-12-05T18:05:47.312Z,87012.28
2022-12-05T18:08:16.149Z,87017.50
2022-12-05T18:10:46.568Z,87018.25
2022-12-05T18:13:15.133Z,87014.47
2022-12-05T18:15:43.312Z,87014.78
2022-12-05T18:18:16.918Z,87021.94
2022-12-05T18:20:44.931Z,87014.13
2022-12-05T18:23:12.439Z,87015.66
2022-12-05T18:25:40.842Z,87006.28
2022-12-05T18:28:23.393Z,86994.00
2022-12-05T18:31:02.442Z,86992.50
2022-12-05T18:33:31.262Z,86994.00
2022-12-05T18:36:10.993Z,86995.09
2022-12-05T18:38:57.218Z,86989.47
2022-12-05T18:41:28.488Z,86980.88
2022-12-05T18:43:57.522Z,86979.81
2022-12-05T18:46:33.494Z,86983.44
2022-12-05T18:49:09.032Z,86994.28
2022-12-05T18:51:42.660Z,86993.59
2022-12-05T18:54:11.540Z,86991.31
2022-12-05T18:56:39.222Z,87001.03
2022-12-05T18:59:15.921Z,87004.78
2022-12-05T19:01:44.733Z,86997.72
2022-12-05T19:04:17.828Z,86994.00
2022-12-05T19:06:58.509Z,87009.31
2022-12-05T19:09:31.767Z,87003.00
2022-12-05T19:12:00.195Z,87003.41
2022-12-05T19:14:30.074Z,87004.91
2022-12-05T19:17:00.208Z,87008.63
2022-12-05T19:19:57.248Z,87014.88
2022-12-05T19:22:35.056Z,87011.50
2022-12-05T19:25:03.782Z,87018.66
2022-12-05T19:27:31.012Z,87015.34
2022-12-05T19:29:58.362Z,87020.91
2022-12-05T19:32:25.787Z,87019.84
2022-12-05T19:34:52.923Z,87017.56
2022-12-05T19:37:20.245Z,87019.00
2022-12-05T19:39:47.389Z,87014.88
2022-12-05T19:42:14.593Z,87027.16
2022-12-05T19:44:41.881Z,87017.09
2022-12-05T19:47:09.047Z,87022.31
2022-12-05T19:49:37.042Z,87026.00
2022-12-05T19:52:07.217Z,87031.16
2022-12-05T19:54:34.703Z,87027.84
2022-12-05T19:57:01.786Z,87034.59
2022-12-05T19:59:28.976Z,87033.06
2022-12-05T20:01:56.235Z,87031.06
2022-12-05T20:04:23.468Z,87023.22
2022-12-05T20:06:50.817Z,87035.25
2022-12-05T20:09:21.716Z,87034.16
2022-12-05T20:11:55.225Z,87034.94
2022-12-05T20:14:25.357Z,87034.44
2022-12-05T20:16:53.610Z,87034.94
2022-12-05T20:19:20.864Z,87042.00
2022-12-05T20:21:48.158Z,87034.78
2022-12-05T20:24:15.643Z,87034.09
2022-12-05T20:26:45.084Z,87038.00
2022-12-05T20:29:12.385Z,87038.56
2022-12-05T20:31:42.419Z,87044.25
2022-12-05T20:34:14.209Z,87039.78
2022-12-05T20:36:41.829Z,87051.06
2022-12-05T20:39:15.476Z,87051.59
2022-12-05T20:41:43.446Z,87048.38
2022-12-05T20:44:15.449Z,87054.06
2022-12-05T20:46:42.833Z,87053.19
2022-12-05T20:49:12.683Z,87059.84
2022-12-05T20:51:43.105Z,87055.97
2022-12-05T20:54:11.180Z,87067.53
2022-12-05T20:56:38.835Z,87072.03
2022-12-05T20:59:10.310Z,87074.13
2022-12-05T21:01:38.483Z,87074.38
2022-12-05T21:04:08.027Z,87068.84
2022-12-05T21:06:38.451Z,87081.13
2022-12-05T21:09:08.392Z,87091.84
2022-12-05T21:11:35.548Z,87084.97
2022-12-05T21:14:02.677Z,87088.00
2022-12-05T21:16:29.899Z,87091.72
2022-12-05T21:18:59.820Z,87096.34
2022-12-05T21:21:29.269Z,87083.38
2022-12-05T21:24:00.418Z,87076.31
2022-12-05T21:26:30.835Z,87071.88
2022-12-05T21:28:59.580Z,87069.00
2022-12-05T21:31:35.447Z,87056.81
2022-12-05T21:34:07.928Z,87051.06
2022-12-05T21:36:36.937Z,87052.34
2022-12-05T21:39:05.215Z,87057.56
2022-12-05T21:41:33.466Z,87061.41
2022-12-05T21:44:01.430Z,87057.84
2022-12-05T21:46:28.843Z,87066.84
2022-12-05T21:48:56.311Z,87075.69
2022-12-05T21:51:24.450Z,87078.13
2022-12-05T21:53:52.184Z,87078.53
2022-12-05T21:56:23.201Z,87085.69
2022-12-05T21:58:52.021Z,87087.19
2022-12-05T22:01:26.269Z,87092.31
2022-12-05T22:03:57.029Z,87087.44
2022-12-05T22:06:24.182Z,87082.59
2022-12-05T22:08:51.532Z,87082.50
2022-12-05T22:11:23.140Z,87085.88
2022-12-05T22:13:51.037Z,87094.78
2022-12-05T22:16:19.766Z,87091.34
2022-12-05T22:18:47.715Z,87089.75
2022-12-05T22:21:20.802Z,87105.56
2022-12-05T22:23:49.376Z,87109.78
2022-12-05T22:26:24.161Z,87111.53
2022-12-05T22:28:54.310Z,87115.81
2022-12-05T22:31:23.252Z,87113.47
2022-12-05T22:33:50.896Z,87122.81
2022-12-05T22:36:20.083Z,87118.69
2022-12-05T22:38:48.873Z,87119.69
2022-12-05T22:41:23.302Z,87120.78
2022-12-05T22:43:56.723Z,87119.19
2022-12-05T22:46:25.463Z,87117.00
2022-12-05T22:48:53.002Z,87114.28
2022-12-05T22:51:21.860Z,87124.88
2022-12-05T22:53:53.731Z,87122.28
2022-12-05T22:56:23.562Z,87122.47
2022-12-05T22:58:55.672Z,87130.03
2022-12-05T23:01:32.177Z,87118.78
2022-12-05T23:04:10.707Z,87125.47
2022-12-05T23:06:39.755Z,87121.38
2022-12-05T23:09:11.516Z,87119.59
2022-12-05T23:11:40.943Z,87118.84
2022-12-05T23:14:10.520Z,87126.25
2022-12-05T23:16:39.662Z,87130.38
2022-12-05T23:19:07.375Z,87132.22
2022-12-05T23:21:40.520Z,87131.03
2022-12-05T23:24:12.585Z,87129.84
2022-12-05T23:26:46.092Z,87121.97
2022-12-05T23:29:15.765Z,87120.38
2022-12-05T23:31:44.288Z,87115.16
2022-12-05T23:34:12.324Z,87122.22
2022-12-05T23:36:41.047Z,87120.69
2022-12-05T23:39:09.015Z,87126.59
2022-12-05T23:41:36.671Z,87115.72
2022-12-05T23:44:04.632Z,87112.97
2022-12-05T23:46:32.565Z,87115.66
2022-12-05T23:49:00.630Z,87116.13
2022-12-05T23:51:30.345Z,87121.00
2022-12-05T23:54:01.667Z,87126.53
2022-12-05T23:56:33.321Z,87130.59
2022-12-05T23:59:04.248Z,87129.06
